PWSweather.com
Personal Weather Stations
Station Observations
KOMOKA
Komoka Village, Komoka, ON N0L IRO

Komoka VillageKomoka, ON N0L IRO

Lat: 42.9542444, Lon: -81.4348861

Elevation: 805

Station Type: Davis Vantage Pro 2

Latest ConditionsUpdated 11:23:09 AM EDT Thursday, Apr 17, 2014
Currently Today's Max Today's Min Today's Average
Temperature 46.0°F7.8°C 46.0°F7.8°C 30.0°F-1.1°C 35.0°F1.7°C
Dew Point 28.9°F-1.7°C 29.7°F-1.3°C 20.7°F-6.3°C 24.5°F-4.2°C
Winds 7.0 mph S11.3 kmh S 8.0 mph SSE12.9 kmh SSE - 3.7 mph 6.0 kmh
Wind Gusts 19.0 mph30.6 kmh 21.0 mph33.8 kmh - -
Humidity 51% 73% 50% 65%
Pressure 30.41 in1029.8 mb 30.48 in1032.2 mb 30.41 in1029.8 mb -
Hour Temp Dew Point Humidity Winds Wind Gusts Pressure Precip Precip Rate Daily Precip Total
11:23 AM 46.0°F7.8°C 28.9°F-1.7°C 51% 7.0 mph S11.3 kmh S 19.0 mph30.6 kmh 30.41 in1029.8 mb 0.00 in0.0 mm 0.00 in/hr0.0 mm/hr 0.00 in0.0 mm
11:16 AM 45.9°F7.7°C 28.2°F-2.1°C 50% 5.0 mph S8.0 kmh S 17.0 mph27.4 kmh 30.41 in1029.8 mb 0.00 in0.0 mm 0.00 in/hr0.0 mm/hr 0.00 in0.0 mm
11:09 AM 45.7°F7.6°C 28.6°F-1.9°C 51% 7.0 mph SSE11.3 kmh SSE 16.0 mph25.7 kmh 30.41 in1029.8 mb 0.00 in0.0 mm 0.00 in/hr0.0 mm/hr 0.00 in0.0 mm
11:02 AM 45.9°F7.7°C 28.2°F-2.1°C 50% 5.0 mph S8.0 kmh S 16.0 mph25.7 kmh 30.41 in1029.8 mb 0.00 in0.0 mm 0.00 in/hr0.0 mm/hr 0.00 in0.0 mm
10:55 AM 45.3°F7.4°C 29.7°F-1.3°C 54% 4.0 mph SSE6.4 kmh SSE 17.0 mph27.4 kmh 30.41 in1029.8 mb 0.00 in0.0 mm 0.00 in/hr0.0 mm/hr 0.00 in0.0 mm
10:48 AM 45.0°F7.2°C 27.9°F-2.3°C 51% 5.0 mph SE8.0 kmh SE 16.0 mph25.7 kmh 30.41 in1029.8 mb 0.00 in0.0 mm 0.00 in/hr0.0 mm/hr 0.00 in0.0 mm
10:41 AM 44.4°F6.9°C 27.5°F-2.5°C 51% 8.0 mph S12.9 kmh S 21.0 mph33.8 kmh 30.42 in1030.1 mb 0.00 in0.0 mm 0.00 in/hr0.0 mm/hr 0.00 in0.0 mm
10:34 AM 44.8°F7.1°C 27.3°F-2.6°C 50% 8.0 mph SSE12.9 kmh SSE 21.0 mph33.8 kmh 30.42 in1030.1 mb 0.00 in0.0 mm 0.00 in/hr0.0 mm/hr 0.00 in0.0 mm
10:27 AM 44.8°F7.1°C 28.6°F-1.9°C 53% 4.0 mph SSE6.4 kmh SSE 15.0 mph24.1 kmh 30.42 in1030.1 mb 0.00 in0.0 mm 0.00 in/hr0.0 mm/hr 0.00 in0.0 mm
10:20 AM 44.1°F6.7°C 28.9°F-1.7°C 55% 4.0 mph SE6.4 kmh SE 12.0 mph19.3 kmh 30.42 in1030.1 mb 0.00 in0.0 mm 0.00 in/hr0.0 mm/hr 0.00 in0.0 mm
10:13 AM 43.3°F6.3°C 28.8°F-1.8°C 56% 4.0 mph SSE6.4 kmh SSE 17.0 mph27.4 kmh 30.42 in1030.1 mb 0.00 in0.0 mm 0.00 in/hr0.0 mm/hr 0.00 in0.0 mm
10:06 AM 43.0°F6.1°C 29.3°F-1.5°C 58% 4.0 mph SSE6.4 kmh SSE 12.0 mph19.3 kmh 30.42 in1030.1 mb 0.00 in0.0 mm 0.00 in/hr0.0 mm/hr 0.00 in0.0 mm
09:59 AM 42.4°F5.8°C 28.8°F-1.8°C 58% 5.0 mph SE8.0 kmh SE 20.0 mph32.2 kmh 30.42 in1030.1 mb 0.00 in0.0 mm 0.00 in/hr0.0 mm/hr 0.00 in0.0 mm
09:52 AM 42.4°F5.8°C 28.6°F-1.9°C 58% 4.0 mph SE6.4 kmh SE 20.0 mph32.2 kmh 30.42 in1030.1 mb 0.00 in0.0 mm 0.00 in/hr0.0 mm/hr 0.00 in0.0 mm
09:45 AM 41.9°F5.5°C 28.9°F-1.7°C 60% 4.0 mph SE6.4 kmh SE 16.0 mph25.7 kmh 30.42 in1030.1 mb 0.00 in0.0 mm 0.00 in/hr0.0 mm/hr 0.00 in0.0 mm
09:38 AM 41.2°F5.1°C 28.4°F-2.0°C 60% 5.0 mph SE8.0 kmh SE 16.0 mph25.7 kmh 30.43 in1030.5 mb 0.00 in0.0 mm 0.00 in/hr0.0 mm/hr 0.00 in0.0 mm
09:31 AM 40.8°F4.9°C 27.5°F-2.5°C 59% 5.0 mph SE8.0 kmh SE 13.0 mph20.9 kmh 30.43 in1030.5 mb 0.00 in0.0 mm 0.00 in/hr0.0 mm/hr 0.00 in0.0 mm
09:24 AM 40.6°F4.8°C 27.9°F-2.3°C 60% 5.0 mph SE8.0 kmh SE 13.0 mph20.9 kmh 30.43 in1030.5 mb 0.00 in0.0 mm 0.00 in/hr0.0 mm/hr 0.00 in0.0 mm
09:17 AM 40.5°F4.7°C 27.7°F-2.4°C 60% 4.0 mph SE6.4 kmh SE 9.0 mph14.5 kmh 30.43 in1030.5 mb 0.00 in0.0 mm 0.00 in/hr0.0 mm/hr 0.00 in0.0 mm
09:10 AM 39.9°F4.4°C 27.5°F-2.5°C 61% 5.0 mph SE8.0 kmh SE 13.0 mph20.9 kmh 30.43 in1030.5 mb 0.00 in0.0 mm 0.00 in/hr0.0 mm/hr 0.00 in0.0 mm
09:03 AM 39.6°F4.2°C 27.1°F-2.7°C 61% 4.0 mph SE6.4 kmh SE 15.0 mph24.1 kmh 30.43 in1030.5 mb 0.00 in0.0 mm 0.00 in/hr0.0 mm/hr 0.00 in0.0 mm
08:56 AM 39.0°F3.9°C 26.6°F-3.0°C 61% 5.0 mph SE8.0 kmh SE 17.0 mph27.4 kmh 30.43 in1030.5 mb 0.00 in0.0 mm 0.00 in/hr0.0 mm/hr 0.00 in0.0 mm
08:49 AM 38.7°F3.7°C 26.1°F-3.3°C 60% 7.0 mph ESE11.3 kmh ESE 16.0 mph25.7 kmh 30.43 in1030.5 mb 0.00 in0.0 mm 0.00 in/hr0.0 mm/hr 0.00 in0.0 mm
08:42 AM 38.3°F3.5°C 26.4°F-3.1°C 62% 5.0 mph SE8.0 kmh SE 16.0 mph25.7 kmh 30.43 in1030.5 mb 0.00 in0.0 mm 0.00 in/hr0.0 mm/hr 0.00 in0.0 mm
08:35 AM 37.9°F3.3°C 26.4°F-3.1°C 63% 4.0 mph SE6.4 kmh SE 15.0 mph24.1 kmh 30.43 in1030.5 mb 0.00 in0.0 mm 0.00 in/hr0.0 mm/hr 0.00 in0.0 mm
08:28 AM 37.6°F3.1°C 26.6°F-3.0°C 64% 4.0 mph SE6.4 kmh SE 11.0 mph17.7 kmh 30.43 in1030.5 mb 0.00 in0.0 mm 0.00 in/hr0.0 mm/hr 0.00 in0.0 mm
08:21 AM 37.2°F2.9°C 26.2°F-3.2°C 64% 3.0 mph SE4.8 kmh SE 11.0 mph17.7 kmh 30.44 in1030.8 mb 0.00 in0.0 mm 0.00 in/hr0.0 mm/hr 0.00 in0.0 mm
08:14 AM 36.9°F2.7°C 26.2°F-3.2°C 65% 4.0 mph ESE6.4 kmh ESE 12.0 mph19.3 kmh 30.44 in1030.8 mb 0.00 in0.0 mm 0.00 in/hr0.0 mm/hr 0.00 in0.0 mm
08:07 AM 36.5°F2.5°C 25.9°F-3.4°C 65% 5.0 mph E8.0 kmh E 13.0 mph20.9 kmh 30.44 in1030.8 mb 0.00 in0.0 mm 0.00 in/hr0.0 mm/hr 0.00 in0.0 mm
08:00 AM 36.1°F2.3°C 26.2°F-3.2°C 67% 4.0 mph SE6.4 kmh SE 12.0 mph19.3 kmh 30.44 in1030.8 mb 0.00 in0.0 mm 0.00 in/hr0.0 mm/hr 0.00 in0.0 mm
07:53 AM 35.6°F2.0°C 25.7°F-3.5°C 67% 3.0 mph SE4.8 kmh SE 12.0 mph19.3 kmh 30.44 in1030.8 mb 0.00 in0.0 mm 0.00 in/hr0.0 mm/hr 0.00 in0.0 mm
07:46 AM 35.1°F1.7°C 25.5°F-3.6°C 68% 4.0 mph ESE6.4 kmh ESE 13.0 mph20.9 kmh 30.44 in1030.8 mb 0.00 in0.0 mm 0.00 in/hr0.0 mm/hr 0.00 in0.0 mm
07:39 AM 34.5°F1.4°C 25.3°F-3.7°C 69% 4.0 mph ESE6.4 kmh ESE 13.0 mph20.9 kmh 30.44 in1030.8 mb 0.00 in0.0 mm 0.00 in/hr0.0 mm/hr 0.00 in0.0 mm
07:32 AM 34.0°F1.1°C 25.2°F-3.8°C 70% 3.0 mph E4.8 kmh E 12.0 mph19.3 kmh 30.44 in1030.8 mb 0.00 in0.0 mm 0.00 in/hr0.0 mm/hr 0.00 in0.0 mm
07:25 AM 33.6°F0.9°C 25.0°F-3.9°C 70% 4.0 mph E6.4 kmh E 11.0 mph17.7 kmh 30.43 in1030.5 mb 0.00 in0.0 mm 0.00 in/hr0.0 mm/hr 0.00 in0.0 mm
07:18 AM 33.4°F0.8°C 25.0°F-3.9°C 71% 3.0 mph ESE4.8 kmh ESE 11.0 mph17.7 kmh 30.43 in1030.5 mb 0.00 in0.0 mm 0.00 in/hr0.0 mm/hr 0.00 in0.0 mm
07:11 AM 33.3°F0.7°C 24.6°F-4.1°C 70% 4.0 mph ESE6.4 kmh ESE 12.0 mph19.3 kmh 30.42 in1030.1 mb 0.00 in0.0 mm 0.00 in/hr0.0 mm/hr 0.00 in0.0 mm
07:04 AM 33.3°F0.7°C 24.8°F-4.0°C 71% 4.0 mph E6.4 kmh E 12.0 mph19.3 kmh 30.42 in1030.1 mb 0.00 in0.0 mm 0.00 in/hr0.0 mm/hr 0.00 in0.0 mm
06:57 AM 33.1°F0.6°C 24.6°F-4.1°C 71% 3.0 mph E4.8 kmh E 9.0 mph14.5 kmh 30.42 in1030.1 mb 0.00 in0.0 mm 0.00 in/hr0.0 mm/hr 0.00 in0.0 mm
06:50 AM 33.1°F0.6°C 24.6°F-4.1°C 71% 3.0 mph E4.8 kmh E 12.0 mph19.3 kmh 30.42 in1030.1 mb 0.00 in0.0 mm 0.00 in/hr0.0 mm/hr 0.00 in0.0 mm
06:43 AM 33.1°F0.6°C 24.6°F-4.1°C 71% 4.0 mph E6.4 kmh E 12.0 mph19.3 kmh 30.43 in1030.5 mb 0.00 in0.0 mm 0.00 in/hr0.0 mm/hr 0.00 in0.0 mm
06:36 AM 33.1°F0.6°C 24.3°F-4.3°C 70% 4.0 mph E6.4 kmh E 16.0 mph25.7 kmh 30.42 in1030.1 mb 0.00 in0.0 mm 0.00 in/hr0.0 mm/hr 0.00 in0.0 mm
06:29 AM 32.9°F0.5°C 24.3°F-4.3°C 70% 4.0 mph ESE6.4 kmh ESE 17.0 mph27.4 kmh 30.43 in1030.5 mb 0.00 in0.0 mm 0.00 in/hr0.0 mm/hr 0.00 in0.0 mm
06:22 AM 32.9°F0.5°C 24.4°F-4.2°C 71% 3.0 mph ESE4.8 kmh ESE 9.0 mph14.5 kmh 30.43 in1030.5 mb 0.00 in0.0 mm 0.00 in/hr0.0 mm/hr 0.00 in0.0 mm
06:15 AM 32.7°F0.4°C 24.4°F-4.2°C 71% 4.0 mph E6.4 kmh E 15.0 mph24.1 kmh 30.43 in1030.5 mb 0.00 in0.0 mm 0.00 in/hr0.0 mm/hr 0.00 in0.0 mm
06:08 AM 32.5°F0.3°C 24.3°F-4.3°C 71% 3.0 mph E4.8 kmh E 9.0 mph14.5 kmh 30.42 in1030.1 mb 0.00 in0.0 mm 0.00 in/hr0.0 mm/hr 0.00 in0.0 mm
06:01 AM 32.5°F0.3°C 24.1°F-4.4°C 71% 4.0 mph E6.4 kmh E 9.0 mph14.5 kmh 30.42 in1030.1 mb 0.00 in0.0 mm 0.00 in/hr0.0 mm/hr 0.00 in0.0 mm
05:54 AM 32.4°F0.2°C 24.3°F-4.3°C 72% 3.0 mph E4.8 kmh E 12.0 mph19.3 kmh 30.42 in1030.1 mb 0.00 in0.0 mm 0.00 in/hr0.0 mm/hr 0.00 in0.0 mm
05:47 AM 32.2°F0.1°C 24.3°F-4.3°C 72% 4.0 mph E6.4 kmh E 12.0 mph19.3 kmh 30.43 in1030.5 mb 0.00 in0.0 mm 0.00 in/hr0.0 mm/hr 0.00 in0.0 mm
05:40 AM 32.2°F0.1°C 24.1°F-4.4°C 72% 4.0 mph E6.4 kmh E 13.0 mph20.9 kmh 30.42 in1030.1 mb 0.00 in0.0 mm 0.00 in/hr0.0 mm/hr 0.00 in0.0 mm
05:33 AM 32.2°F0.1°C 24.1°F-4.4°C 72% 4.0 mph E6.4 kmh E 13.0 mph20.9 kmh 30.43 in1030.5 mb 0.00 in0.0 mm 0.00 in/hr0.0 mm/hr 0.00 in0.0 mm
05:26 AM 32.2°F0.1°C 24.3°F-4.3°C 72% 4.0 mph E6.4 kmh E 13.0 mph20.9 kmh 30.43 in1030.5 mb 0.00 in0.0 mm 0.00 in/hr0.0 mm/hr 0.00 in0.0 mm
05:19 AM 32.2°F0.1°C 23.9°F-4.5°C 71% 4.0 mph E6.4 kmh E 9.0 mph14.5 kmh 30.43 in1030.5 mb 0.00 in0.0 mm 0.00 in/hr0.0 mm/hr 0.00 in0.0 mm
05:12 AM 32.2°F0.1°C 23.9°F-4.5°C 71% 4.0 mph E6.4 kmh E 9.0 mph14.5 kmh 30.43 in1030.5 mb 0.00 in0.0 mm 0.00 in/hr0.0 mm/hr 0.00 in0.0 mm
05:05 AM 32.2°F0.1°C 23.9°F-4.5°C 71% 4.0 mph E6.4 kmh E 9.0 mph14.5 kmh 30.43 in1030.5 mb 0.00 in0.0 mm 0.00 in/hr0.0 mm/hr 0.00 in0.0 mm
04:58 AM 32.4°F0.2°C 23.5°F-4.7°C 70% 4.0 mph E6.4 kmh E 9.0 mph14.5 kmh 30.43 in1030.5 mb 0.00 in0.0 mm 0.00 in/hr0.0 mm/hr 0.00 in0.0 mm
04:51 AM 32.4°F0.2°C 23.5°F-4.7°C 70% 4.0 mph E6.4 kmh E 11.0 mph17.7 kmh 30.43 in1030.5 mb 0.00 in0.0 mm 0.00 in/hr0.0 mm/hr 0.00 in0.0 mm
04:44 AM 32.4°F0.2°C 23.5°F-4.7°C 70% 4.0 mph ESE6.4 kmh ESE 9.0 mph14.5 kmh 30.43 in1030.5 mb 0.00 in0.0 mm 0.00 in/hr0.0 mm/hr 0.00 in0.0 mm
04:37 AM 32.4°F0.2°C 23.4°F-4.8°C 69% 3.0 mph E4.8 kmh E 12.0 mph19.3 kmh 30.43 in1030.5 mb 0.00 in0.0 mm 0.00 in/hr0.0 mm/hr 0.00 in0.0 mm
04:30 AM 32.4°F0.2°C 23.4°F-4.8°C 69% 4.0 mph E6.4 kmh E 12.0 mph19.3 kmh 30.43 in1030.5 mb 0.00 in0.0 mm 0.00 in/hr0.0 mm/hr 0.00 in0.0 mm
04:23 AM 32.4°F0.2°C 23.4°F-4.8°C 69% 4.0 mph E6.4 kmh E 12.0 mph19.3 kmh 30.42 in1030.1 mb 0.00 in0.0 mm 0.00 in/hr0.0 mm/hr 0.00 in0.0 mm
04:16 AM 32.4°F0.2°C 23.0°F-5.0°C 68% 3.0 mph E4.8 kmh E 13.0 mph20.9 kmh 30.42 in1030.1 mb 0.00 in0.0 mm 0.00 in/hr0.0 mm/hr 0.00 in0.0 mm
04:09 AM 32.4°F0.2°C 23.0°F-5.0°C 68% 4.0 mph E6.4 kmh E 15.0 mph24.1 kmh 30.42 in1030.1 mb 0.00 in0.0 mm 0.00 in/hr0.0 mm/hr 0.00 in0.0 mm
04:02 AM 32.4°F0.2°C 23.0°F-5.0°C 68% 4.0 mph E6.4 kmh E 11.0 mph17.7 kmh 30.42 in1030.1 mb 0.00 in0.0 mm 0.00 in/hr0.0 mm/hr 0.00 in0.0 mm
03:55 AM 32.2°F0.1°C 22.5°F-5.3°C 67% 3.0 mph E4.8 kmh E 12.0 mph19.3 kmh 30.42 in1030.1 mb 0.00 in0.0 mm 0.00 in/hr0.0 mm/hr 0.00 in0.0 mm
03:48 AM 32.2°F0.1°C 22.5°F-5.3°C 67% 3.0 mph E4.8 kmh E 8.0 mph12.9 kmh 30.42 in1030.1 mb 0.00 in0.0 mm 0.00 in/hr0.0 mm/hr 0.00 in0.0 mm
03:41 AM 32.4°F0.2°C 22.6°F-5.2°C 67% 1.0 mph E1.6 kmh E 8.0 mph12.9 kmh 30.42 in1030.1 mb 0.00 in0.0 mm 0.00 in/hr0.0 mm/hr 0.00 in0.0 mm
03:34 AM 32.4°F0.2°C 22.6°F-5.2°C 67% 4.0 mph E6.4 kmh E 13.0 mph20.9 kmh 30.42 in1030.1 mb 0.00 in0.0 mm 0.00 in/hr0.0 mm/hr 0.00 in0.0 mm
03:27 AM 32.4°F0.2°C 22.3°F-5.4°C 66% 4.0 mph E6.4 kmh E 13.0 mph20.9 kmh 30.42 in1030.1 mb 0.00 in0.0 mm 0.00 in/hr0.0 mm/hr 0.00 in0.0 mm
03:20 AM 32.4°F0.2°C 22.3°F-5.4°C 66% 4.0 mph E6.4 kmh E 13.0 mph20.9 kmh 30.42 in1030.1 mb 0.00 in0.0 mm 0.00 in/hr0.0 mm/hr 0.00 in0.0 mm
03:13 AM 32.4°F0.2°C 21.9°F-5.6°C 65% 5.0 mph E8.0 kmh E 13.0 mph20.9 kmh 30.43 in1030.5 mb 0.00 in0.0 mm 0.00 in/hr0.0 mm/hr 0.00 in0.0 mm
03:06 AM 32.4°F0.2°C 21.9°F-5.6°C 65% 5.0 mph E8.0 kmh E 13.0 mph20.9 kmh 30.43 in1030.5 mb 0.00 in0.0 mm 0.00 in/hr0.0 mm/hr 0.00 in0.0 mm
02:59 AM 32.2°F0.1°C 21.7°F-5.7°C 65% 4.0 mph E6.4 kmh E 13.0 mph20.9 kmh 30.43 in1030.5 mb 0.00 in0.0 mm 0.00 in/hr0.0 mm/hr 0.00 in0.0 mm
02:52 AM 32.2°F0.1°C 21.4°F-5.9°C 64% 4.0 mph E6.4 kmh E 12.0 mph19.3 kmh 30.43 in1030.5 mb 0.00 in0.0 mm 0.00 in/hr0.0 mm/hr 0.00 in0.0 mm
02:45 AM 32.2°F0.1°C 21.4°F-5.9°C 64% 5.0 mph E8.0 kmh E 12.0 mph19.3 kmh 30.44 in1030.8 mb 0.00 in0.0 mm 0.00 in/hr0.0 mm/hr 0.00 in0.0 mm
02:38 AM 32.2°F0.1°C 21.2°F-6.0°C 64% 4.0 mph E6.4 kmh E 13.0 mph20.9 kmh 30.44 in1030.8 mb 0.00 in0.0 mm 0.00 in/hr0.0 mm/hr 0.00 in0.0 mm
02:31 AM 32.2°F0.1°C 21.2°F-6.0°C 64% 4.0 mph E6.4 kmh E 16.0 mph25.7 kmh 30.44 in1030.8 mb 0.00 in0.0 mm 0.00 in/hr0.0 mm/hr 0.00 in0.0 mm
02:24 AM 32.0°F0.0°C 20.8°F-6.2°C 63% 4.0 mph E6.4 kmh E 13.0 mph20.9 kmh 30.45 in1031.2 mb 0.00 in0.0 mm 0.00 in/hr0.0 mm/hr 0.00 in0.0 mm
02:17 AM 32.0°F0.0°C 20.8°F-6.2°C 63% 4.0 mph E6.4 kmh E 7.0 mph11.3 kmh 30.45 in1031.2 mb 0.00 in0.0 mm 0.00 in/hr0.0 mm/hr 0.00 in0.0 mm
02:10 AM 31.8°F-0.1°C 20.7°F-6.3°C 63% 4.0 mph E6.4 kmh E 12.0 mph19.3 kmh 30.45 in1031.2 mb 0.00 in0.0 mm 0.00 in/hr0.0 mm/hr 0.00 in0.0 mm
02:03 AM 31.5°F-0.3°C 20.7°F-6.3°C 64% 4.0 mph E6.4 kmh E 12.0 mph19.3 kmh 30.45 in1031.2 mb 0.00 in0.0 mm 0.00 in/hr0.0 mm/hr 0.00 in0.0 mm
01:56 AM 31.3°F-0.4°C 20.8°F-6.2°C 65% 3.0 mph E4.8 kmh E 12.0 mph19.3 kmh 30.45 in1031.2 mb 0.00 in0.0 mm 0.00 in/hr0.0 mm/hr 0.00 in0.0 mm
01:49 AM 31.3°F-0.4°C 21.2°F-6.0°C 66% 3.0 mph E4.8 kmh E 12.0 mph19.3 kmh 30.46 in1031.5 mb 0.00 in0.0 mm 0.00 in/hr0.0 mm/hr 0.00 in0.0 mm
01:42 AM 31.1°F-0.5°C 21.4°F-5.9°C 67% 3.0 mph E4.8 kmh E 7.0 mph11.3 kmh 30.46 in1031.5 mb 0.00 in0.0 mm 0.00 in/hr0.0 mm/hr 0.00 in0.0 mm
01:35 AM 31.1°F-0.5°C 21.7°F-5.7°C 68% 3.0 mph E4.8 kmh E 8.0 mph12.9 kmh 30.46 in1031.5 mb 0.00 in0.0 mm 0.00 in/hr0.0 mm/hr 0.00 in0.0 mm
01:28 AM 30.9°F-0.6°C 21.7°F-5.7°C 68% 3.0 mph E4.8 kmh E 8.0 mph12.9 kmh 30.46 in1031.5 mb 0.00 in0.0 mm 0.00 in/hr0.0 mm/hr 0.00 in0.0 mm
01:21 AM 30.9°F-0.6°C 22.1°F-5.5°C 69% 1.0 mph E1.6 kmh E 7.0 mph11.3 kmh 30.47 in1031.8 mb 0.00 in0.0 mm 0.00 in/hr0.0 mm/hr 0.00 in0.0 mm
01:14 AM 30.9°F-0.6°C 22.3°F-5.4°C 70% 1.0 mph E1.6 kmh E 5.0 mph8.0 kmh 30.47 in1031.8 mb 0.00 in0.0 mm 0.00 in/hr0.0 mm/hr 0.00 in0.0 mm
01:07 AM 30.9°F-0.6°C 22.3°F-5.4°C 70% 1.0 mph E1.6 kmh E 5.0 mph8.0 kmh 30.47 in1031.8 mb 0.00 in0.0 mm 0.00 in/hr0.0 mm/hr 0.00 in0.0 mm
01:00 AM 30.9°F-0.6°C 22.3°F-5.4°C 70% 1.0 mph E1.6 kmh E 5.0 mph8.0 kmh 30.47 in1031.8 mb 0.00 in0.0 mm 0.00 in/hr0.0 mm/hr 0.00 in0.0 mm
12:53 AM 30.7°F-0.7°C 22.1°F-5.5°C 70% 3.0 mph E4.8 kmh E 7.0 mph11.3 kmh 30.47 in1031.8 mb 0.00 in0.0 mm 0.00 in/hr0.0 mm/hr 0.00 in0.0 mm
12:46 AM 30.6°F-0.8°C 21.9°F-5.6°C 70% 1.0 mph E1.6 kmh E 7.0 mph11.3 kmh 30.47 in1031.8 mb 0.00 in0.0 mm 0.00 in/hr0.0 mm/hr 0.00 in0.0 mm
12:39 AM 30.4°F-0.9°C 22.1°F-5.5°C 71% 1.0 mph E1.6 kmh E 5.0 mph8.0 kmh 30.47 in1031.8 mb 0.00 in0.0 mm 0.00 in/hr0.0 mm/hr 0.00 in0.0 mm
12:32 AM 30.4°F-0.9°C 22.1°F-5.5°C 71% 1.0 mph E1.6 kmh E 5.0 mph8.0 kmh 30.47 in1031.8 mb 0.00 in0.0 mm 0.00 in/hr0.0 mm/hr 0.00 in0.0 mm
12:25 AM 30.0°F-1.1°C 22.1°F-5.5°C 72% 1.0 mph E1.6 kmh E 4.0 mph6.4 kmh 30.48 in1032.2 mb 0.00 in0.0 mm 0.00 in/hr0.0 mm/hr 0.00 in0.0 mm
12:18 AM 30.2°F-1.0°C 22.3°F-5.4°C 72% Calm Calm 4.0 mph6.4 kmh 30.47 in1031.8 mb 0.00 in0.0 mm 0.00 in/hr0.0 mm/hr 0.00 in0.0 mm
12:11 AM 30.4°F-0.9°C 22.6°F-5.2°C 73% Calm Calm 5.0 mph8.0 kmh 30.48 in1032.2 mb 0.00 in0.0 mm 0.00 in/hr0.0 mm/hr 0.00 in0.0 mm
12:04 AM 30.4°F-0.9°C 22.5°F-5.3°C 72% Calm Calm 5.0 mph8.0 kmh 30.48 in1032.2 mb 0.00 in0.0 mm 0.00 in/hr0.0 mm/hr 0.00 in0.0 mm